sensor_id;sensor_type;location;lat;lon;timestamp;P1;durP1;ratioP1;P2;durP2;ratioP2
69358;SDS011;56520;49.066;8.660;2023-05-14T00:01:24;5.38;;;2.10;;
69358;SDS011;56520;49.066;8.660;2023-05-14T00:03:49;7.70;;;2.60;;
69358;SDS011;56520;49.066;8.660;2023-05-14T00:06:15;5.50;;;2.10;;
69358;SDS011;56520;49.066;8.660;2023-05-14T00:08:40;4.93;;;2.03;;
69358;SDS011;56520;49.066;8.660;2023-05-14T00:11:05;6.22;;;2.78;;
69358;SDS011;56520;49.066;8.660;2023-05-14T00:13:32;7.30;;;2.63;;
69358;SDS011;56520;49.066;8.660;2023-05-14T00:15:58;5.55;;;2.20;;
69358;SDS011;56520;49.066;8.660;2023-05-14T00:18:24;5.53;;;2.40;;
69358;SDS011;56520;49.066;8.660;2023-05-14T00:20:49;5.35;;;2.17;;
69358;SDS011;56520;49.066;8.660;2023-05-14T00:23:18;4.85;;;1.85;;
69358;SDS011;56520;49.066;8.660;2023-05-14T00:25:47;5.10;;;2.05;;
69358;SDS011;56520;49.066;8.660;2023-05-14T00:28:12;6.03;;;2.08;;
69358;SDS011;56520;49.066;8.660;2023-05-14T00:30:38;5.13;;;1.95;;
69358;SDS011;56520;49.066;8.660;2023-05-14T00:33:04;5.53;;;2.47;;
69358;SDS011;56520;49.066;8.660;2023-05-14T00:35:29;6.35;;;2.65;;
69358;SDS011;56520;49.066;8.660;2023-05-14T00:37:55;6.03;;;2.30;;
69358;SDS011;56520;49.066;8.660;2023-05-14T00:40:22;5.50;;;2.28;;
69358;SDS011;56520;49.066;8.660;2023-05-14T00:42:50;5.63;;;2.10;;
69358;SDS011;56520;49.066;8.660;2023-05-14T00:45:16;6.45;;;2.15;;
69358;SDS011;56520;49.066;8.660;2023-05-14T00:47:41;5.90;;;2.40;;
69358;SDS011;56520;49.066;8.660;2023-05-14T00:50:07;4.47;;;1.85;;
69358;SDS011;56520;49.066;8.660;2023-05-14T00:52:34;4.28;;;1.55;;
69358;SDS011;56520;49.066;8.660;2023-05-14T00:55:02;5.20;;;1.90;;
69358;SDS011;56520;49.066;8.660;2023-05-14T00:57:30;5.45;;;1.95;;
69358;SDS011;56520;49.066;8.660;2023-05-14T00:59:55;5.85;;;2.20;;
69358;SDS011;56520;49.066;8.660;2023-05-14T01:02:22;5.80;;;2.30;;
69358;SDS011;56520;49.066;8.660;2023-05-14T01:04:47;5.93;;;2.50;;
69358;SDS011;56520;49.066;8.660;2023-05-14T01:09:58;5.68;;;2.17;;
69358;SDS011;56520;49.066;8.660;2023-05-14T01:12:49;4.97;;;1.80;;
69358;SDS011;56520;49.066;8.660;2023-05-14T01:15:27;5.55;;;2.22;;
69358;SDS011;56520;49.066;8.660;2023-05-14T01:18:04;6.55;;;2.47;;
69358;SDS011;56520;49.066;8.660;2023-05-14T01:20:32;5.70;;;2.33;;
69358;SDS011;56520;49.066;8.660;2023-05-14T01:22:57;6.63;;;2.42;;
69358;SDS011;56520;49.066;8.660;2023-05-14T01:25:23;5.70;;;2.30;;
69358;SDS011;56520;49.066;8.660;2023-05-14T01:30:36;5.65;;;2.22;;
69358;SDS011;56520;49.066;8.660;2023-05-14T01:33:23;5.68;;;2.22;;
69358;SDS011;56520;49.066;8.660;2023-05-14T01:35:51;5.90;;;2.33;;
69358;SDS011;56520;49.066;8.660;2023-05-14T01:38:18;5.78;;;2.13;;
69358;SDS011;56520;49.066;8.660;2023-05-14T01:40:45;5.10;;;2.20;;
69358;SDS011;56520;49.066;8.660;2023-05-14T01:43:12;5.03;;;1.88;;
69358;SDS011;56520;49.066;8.660;2023-05-14T01:45:39;5.68;;;2.20;;
69358;SDS011;56520;49.066;8.660;2023-05-14T01:48:04;6.03;;;2.42;;
69358;SDS011;56520;49.066;8.660;2023-05-14T01:50:30;6.88;;;2.53;;
69358;SDS011;56520;49.066;8.660;2023-05-14T01:52:55;6.70;;;2.03;;
69358;SDS011;56520;49.066;8.660;2023-05-14T01:55:21;5.32;;;1.98;;
69358;SDS011;56520;49.066;8.660;2023-05-14T01:57:50;5.88;;;2.47;;
69358;SDS011;56520;49.066;8.660;2023-05-14T02:00:16;6.13;;;2.42;;
69358;SDS011;56520;49.066;8.660;2023-05-14T02:02:42;5.00;;;2.00;;
69358;SDS011;56520;49.066;8.660;2023-05-14T02:05:09;5.82;;;2.47;;
69358;SDS011;56520;49.066;8.660;2023-05-14T02:07:35;5.13;;;2.05;;
69358;SDS011;56520;49.066;8.660;2023-05-14T02:10:00;6.10;;;2.13;;
69358;SDS011;56520;49.066;8.660;2023-05-14T02:12:26;5.90;;;2.08;;
69358;SDS011;56520;49.066;8.660;2023-05-14T02:14:51;5.72;;;2.30;;
69358;SDS011;56520;49.066;8.660;2023-05-14T02:17:17;5.00;;;1.98;;
69358;SDS011;56520;49.066;8.660;2023-05-14T02:19:42;6.43;;;2.13;;
69358;SDS011;56520;49.066;8.660;2023-05-14T02:22:08;6.10;;;2.30;;
69358;SDS011;56520;49.066;8.660;2023-05-14T02:24:34;5.68;;;2.08;;
69358;SDS011;56520;49.066;8.660;2023-05-14T02:26:59;5.45;;;2.20;;
69358;SDS011;56520;49.066;8.660;2023-05-14T02:29:25;5.43;;;2.10;;
69358;SDS011;56520;49.066;8.660;2023-05-14T02:31:51;5.78;;;2.22;;
69358;SDS011;56520;49.066;8.660;2023-05-14T02:34:16;5.95;;;2.17;;
69358;SDS011;56520;49.066;8.660;2023-05-14T02:36:41;4.55;;;1.70;;
69358;SDS011;56520;49.066;8.660;2023-05-14T02:39:07;5.18;;;1.90;;
69358;SDS011;56520;49.066;8.660;2023-05-14T02:41:32;4.80;;;1.83;;
69358;SDS011;56520;49.066;8.660;2023-05-14T02:43:58;5.43;;;2.00;;
69358;SDS011;56520;49.066;8.660;2023-05-14T02:46:23;6.13;;;2.15;;
69358;SDS011;56520;49.066;8.660;2023-05-14T02:48:49;6.18;;;1.63;;
69358;SDS011;56520;49.066;8.660;2023-05-14T02:51:14;6.18;;;2.10;;
69358;SDS011;56520;49.066;8.660;2023-05-14T02:53:40;5.97;;;2.40;;
69358;SDS011;56520;49.066;8.660;2023-05-14T02:56:05;5.90;;;2.10;;
69358;SDS011;56520;49.066;8.660;2023-05-14T02:58:32;4.60;;;1.80;;
69358;SDS011;56520;49.066;8.660;2023-05-14T03:00:57;4.68;;;1.77;;
69358;SDS011;56520;49.066;8.660;2023-05-14T03:03:23;5.18;;;1.73;;
69358;SDS011;56520;49.066;8.660;2023-05-14T03:05:48;6.50;;;1.85;;
69358;SDS011;56520;49.066;8.660;2023-05-14T03:08:14;5.07;;;1.83;;
69358;SDS011;56520;49.066;8.660;2023-05-14T03:10:40;4.57;;;1.75;;
69358;SDS011;56520;49.066;8.660;2023-05-14T03:13:05;6.32;;;2.40;;
69358;SDS011;56520;49.066;8.660;2023-05-14T03:15:30;5.28;;;2.00;;
69358;SDS011;56520;49.066;8.660;2023-05-14T03:17:56;5.78;;;2.15;;
69358;SDS011;56520;49.066;8.660;2023-05-14T03:20:23;5.68;;;2.10;;
69358;SDS011;56520;49.066;8.660;2023-05-14T03:22:49;5.63;;;2.05;;
69358;SDS011;56520;49.066;8.660;2023-05-14T03:25:15;6.60;;;2.50;;
69358;SDS011;56520;49.066;8.660;2023-05-14T03:27:40;9.00;;;2.13;;
69358;SDS011;56520;49.066;8.660;2023-05-14T03:30:06;4.93;;;2.03;;
69358;SDS011;56520;49.066;8.660;2023-05-14T03:32:32;5.13;;;2.17;;
69358;SDS011;56520;49.066;8.660;2023-05-14T03:34:57;6.05;;;2.20;;
69358;SDS011;56520;49.066;8.660;2023-05-14T03:37:23;5.53;;;2.42;;
69358;SDS011;56520;49.066;8.660;2023-05-14T03:39:48;6.00;;;2.22;;
69358;SDS011;56520;49.066;8.660;2023-05-14T03:42:13;5.72;;;2.25;;
69358;SDS011;56520;49.066;8.660;2023-05-14T03:44:39;6.28;;;2.28;;
69358;SDS011;56520;49.066;8.660;2023-05-14T03:47:04;4.90;;;1.83;;
69358;SDS011;56520;49.066;8.660;2023-05-14T03:49:30;5.05;;;1.80;;
69358;SDS011;56520;49.066;8.660;2023-05-14T03:51:55;4.55;;;1.60;;
69358;SDS011;56520;49.066;8.660;2023-05-14T03:54:23;4.65;;;1.80;;
69358;SDS011;56520;49.066;8.660;2023-05-14T03:56:49;7.05;;;2.35;;
69358;SDS011;56520;49.066;8.660;2023-05-14T03:59:14;6.30;;;2.30;;
69358;SDS011;56520;49.066;8.660;2023-05-14T04:01:39;7.25;;;2.40;;
69358;SDS011;56520;49.066;8.660;2023-05-14T04:04:05;5.65;;;2.17;;
69358;SDS011;56520;49.066;8.660;2023-05-14T04:06:31;5.40;;;2.00;;
69358;SDS011;56520;49.066;8.660;2023-05-14T04:08:57;5.97;;;2.00;;
69358;SDS011;56520;49.066;8.660;2023-05-14T04:11:22;7.78;;;2.47;;
69358;SDS011;56520;49.066;8.660;2023-05-14T04:13:47;5.57;;;1.98;;
69358;SDS011;56520;49.066;8.660;2023-05-14T04:16:13;4.75;;;1.83;;
69358;SDS011;56520;49.066;8.660;2023-05-14T04:18:39;4.85;;;1.75;;
69358;SDS011;56520;49.066;8.660;2023-05-14T04:21:04;5.30;;;1.92;;
69358;SDS011;56520;49.066;8.660;2023-05-14T04:23:30;5.00;;;1.75;;
69358;SDS011;56520;49.066;8.660;2023-05-14T04:25:56;4.97;;;1.60;;
69358;SDS011;56520;49.066;8.660;2023-05-14T04:28:21;4.97;;;1.70;;
69358;SDS011;56520;49.066;8.660;2023-05-14T04:30:47;4.75;;;1.52;;
69358;SDS011;56520;49.066;8.660;2023-05-14T04:33:13;5.97;;;2.13;;
69358;SDS011;56520;49.066;8.660;2023-05-14T04:35:38;5.15;;;2.08;;
69358;SDS011;56520;49.066;8.660;2023-05-14T04:38:03;5.18;;;2.00;;
69358;SDS011;56520;49.066;8.660;2023-05-14T04:40:29;5.70;;;1.95;;
69358;SDS011;56520;49.066;8.660;2023-05-14T04:42:55;5.55;;;2.20;;
69358;SDS011;56520;49.066;8.660;2023-05-14T04:45:21;5.75;;;2.33;;
69358;SDS011;56520;49.066;8.660;2023-05-14T04:47:47;5.50;;;2.20;;
69358;SDS011;56520;49.066;8.660;2023-05-14T04:50:12;5.00;;;2.10;;
69358;SDS011;56520;49.066;8.660;2023-05-14T04:52:38;5.20;;;1.95;;
69358;SDS011;56520;49.066;8.660;2023-05-14T04:55:03;4.75;;;1.65;;
69358;SDS011;56520;49.066;8.660;2023-05-14T04:57:29;4.85;;;1.83;;
69358;SDS011;56520;49.066;8.660;2023-05-14T04:59:55;6.22;;;2.05;;
69358;SDS011;56520;49.066;8.660;2023-05-14T05:02:20;5.95;;;2.05;;
69358;SDS011;56520;49.066;8.660;2023-05-14T05:04:46;5.35;;;2.03;;
69358;SDS011;56520;49.066;8.660;2023-05-14T05:07:11;5.28;;;2.00;;
69358;SDS011;56520;49.066;8.660;2023-05-14T05:09:38;4.78;;;1.80;;
69358;SDS011;56520;49.066;8.660;2023-05-14T05:12:04;4.57;;;1.67;;
69358;SDS011;56520;49.066;8.660;2023-05-14T05:14:30;4.90;;;1.75;;
69358;SDS011;56520;49.066;8.660;2023-05-14T05:16:55;5.10;;;1.95;;
69358;SDS011;56520;49.066;8.660;2023-05-14T05:19:20;5.22;;;1.92;;
69358;SDS011;56520;49.066;8.660;2023-05-14T05:21:46;5.22;;;1.90;;
69358;SDS011;56520;49.066;8.660;2023-05-14T05:24:11;5.20;;;1.90;;
69358;SDS011;56520;49.066;8.660;2023-05-14T05:26:37;5.45;;;1.60;;
69358;SDS011;56520;49.066;8.660;2023-05-14T05:29:03;6.90;;;2.40;;
69358;SDS011;56520;49.066;8.660;2023-05-14T05:31:29;5.72;;;2.28;;
69358;SDS011;56520;49.066;8.660;2023-05-14T05:33:55;7.00;;;2.40;;
69358;SDS011;56520;49.066;8.660;2023-05-14T05:36:20;6.60;;;2.33;;
69358;SDS011;56520;49.066;8.660;2023-05-14T05:38:45;6.78;;;2.72;;
69358;SDS011;56520;49.066;8.660;2023-05-14T05:41:11;5.90;;;2.42;;
69358;SDS011;56520;49.066;8.660;2023-05-14T05:43:36;5.88;;;2.50;;
69358;SDS011;56520;49.066;8.660;2023-05-14T05:46:02;6.68;;;2.35;;
69358;SDS011;56520;49.066;8.660;2023-05-14T05:48:27;6.13;;;2.30;;
69358;SDS011;56520;49.066;8.660;2023-05-14T05:50:52;7.30;;;2.70;;
69358;SDS011;56520;49.066;8.660;2023-05-14T05:53:18;5.43;;;2.30;;
69358;SDS011;56520;49.066;8.660;2023-05-14T05:55:43;7.63;;;2.75;;
69358;SDS011;56520;49.066;8.660;2023-05-14T05:58:09;7.88;;;2.85;;
69358;SDS011;56520;49.066;8.660;2023-05-14T06:00:34;6.20;;;2.22;;
69358;SDS011;56520;49.066;8.660;2023-05-14T06:03:00;6.28;;;2.42;;
69358;SDS011;56520;49.066;8.660;2023-05-14T06:05:25;6.90;;;2.42;;
69358;SDS011;56520;49.066;8.660;2023-05-14T06:07:51;6.32;;;2.40;;
69358;SDS011;56520;49.066;8.660;2023-05-14T06:10:17;5.93;;;2.53;;
69358;SDS011;56520;49.066;8.660;2023-05-14T06:12:43;6.18;;;2.33;;
69358;SDS011;56520;49.066;8.660;2023-05-14T06:15:09;6.78;;;2.50;;
69358;SDS011;56520;49.066;8.660;2023-05-14T06:17:36;6.47;;;2.45;;
69358;SDS011;56520;49.066;8.660;2023-05-14T06:20:01;8.57;;;2.80;;
69358;SDS011;56520;49.066;8.660;2023-05-14T06:22:29;7.05;;;2.83;;
69358;SDS011;56520;49.066;8.660;2023-05-14T06:24:55;5.50;;;2.15;;
69358;SDS011;56520;49.066;8.660;2023-05-14T06:27:20;6.32;;;2.42;;
69358;SDS011;56520;49.066;8.660;2023-05-14T06:29:45;5.38;;;2.05;;
69358;SDS011;56520;49.066;8.660;2023-05-14T06:32:11;5.70;;;1.98;;
69358;SDS011;56520;49.066;8.660;2023-05-14T06:34:39;5.90;;;2.60;;
69358;SDS011;56520;49.066;8.660;2023-05-14T06:37:05;6.40;;;2.60;;
69358;SDS011;56520;49.066;8.660;2023-05-14T06:39:31;8.05;;;2.58;;
69358;SDS011;56520;49.066;8.660;2023-05-14T06:41:56;6.85;;;2.53;;
69358;SDS011;56520;49.066;8.660;2023-05-14T06:44:21;6.22;;;2.58;;
69358;SDS011;56520;49.066;8.660;2023-05-14T06:46:47;6.68;;;2.80;;
69358;SDS011;56520;49.066;8.660;2023-05-14T06:49:12;6.20;;;2.33;;
69358;SDS011;56520;49.066;8.660;2023-05-14T06:51:37;6.90;;;2.35;;
69358;SDS011;56520;49.066;8.660;2023-05-14T06:54:04;8.07;;;3.05;;
69358;SDS011;56520;49.066;8.660;2023-05-14T06:56:30;6.50;;;2.75;;
69358;SDS011;56520;49.066;8.660;2023-05-14T06:58:55;7.22;;;3.05;;
69358;SDS011;56520;49.066;8.660;2023-05-14T07:01:20;7.00;;;2.60;;
69358;SDS011;56520;49.066;8.660;2023-05-14T07:03:46;7.13;;;2.83;;
69358;SDS011;56520;49.066;8.660;2023-05-14T07:06:11;6.38;;;2.42;;
69358;SDS011;56520;49.066;8.660;2023-05-14T07:08:37;6.50;;;2.65;;
69358;SDS011;56520;49.066;8.660;2023-05-14T07:11:03;8.40;;;2.92;;
69358;SDS011;56520;49.066;8.660;2023-05-14T07:13:28;7.10;;;2.47;;
69358;SDS011;56520;49.066;8.660;2023-05-14T07:15:54;6.60;;;2.83;;
69358;SDS011;56520;49.066;8.660;2023-05-14T07:18:20;7.50;;;2.75;;
69358;SDS011;56520;49.066;8.660;2023-05-14T07:20:48;6.95;;;2.85;;
69358;SDS011;56520;49.066;8.660;2023-05-14T07:23:13;6.60;;;2.65;;
69358;SDS011;56520;49.066;8.660;2023-05-14T07:25:38;6.03;;;2.40;;
69358;SDS011;56520;49.066;8.660;2023-05-14T07:28:04;6.22;;;2.33;;
69358;SDS011;56520;49.066;8.660;2023-05-14T07:30:29;6.72;;;2.58;;
69358;SDS011;56520;49.066;8.660;2023-05-14T07:32:55;7.75;;;2.90;;
69358;SDS011;56520;49.066;8.660;2023-05-14T07:35:20;6.45;;;2.55;;
69358;SDS011;56520;49.066;8.660;2023-05-14T07:37:46;7.18;;;2.90;;
69358;SDS011;56520;49.066;8.660;2023-05-14T07:40:11;6.72;;;2.70;;
69358;SDS011;56520;49.066;8.660;2023-05-14T07:42:37;6.15;;;2.78;;
69358;SDS011;56520;49.066;8.660;2023-05-14T07:45:03;6.07;;;2.50;;
69358;SDS011;56520;49.066;8.660;2023-05-14T07:47:29;7.57;;;2.72;;
69358;SDS011;56520;49.066;8.660;2023-05-14T07:49:55;6.32;;;2.42;;
69358;SDS011;56520;49.066;8.660;2023-05-14T07:52:21;6.57;;;2.58;;
69358;SDS011;56520;49.066;8.660;2023-05-14T07:54:47;6.93;;;2.78;;
69358;SDS011;56520;49.066;8.660;2023-05-14T07:57:14;6.25;;;2.13;;
69358;SDS011;56520;49.066;8.660;2023-05-14T07:59:39;7.55;;;3.00;;
69358;SDS011;56520;49.066;8.660;2023-05-14T08:02:05;6.65;;;2.47;;
69358;SDS011;56520;49.066;8.660;2023-05-14T08:04:30;7.43;;;2.80;;
69358;SDS011;56520;49.066;8.660;2023-05-14T08:06:56;7.13;;;3.03;;
69358;SDS011;56520;49.066;8.660;2023-05-14T08:09:22;6.25;;;2.20;;
69358;SDS011;56520;49.066;8.660;2023-05-14T08:11:47;7.25;;;3.13;;
69358;SDS011;56520;49.066;8.660;2023-05-14T08:14:13;6.40;;;2.70;;
69358;SDS011;56520;49.066;8.660;2023-05-14T08:16:38;8.27;;;2.97;;
69358;SDS011;56520;49.066;8.660;2023-05-14T08:19:04;6.22;;;2.42;;
69358;SDS011;56520;49.066;8.660;2023-05-14T08:21:29;6.57;;;2.42;;
69358;SDS011;56520;49.066;8.660;2023-05-14T08:23:55;5.97;;;2.38;;
69358;SDS011;56520;49.066;8.660;2023-05-14T08:26:21;6.28;;;2.58;;
69358;SDS011;56520;49.066;8.660;2023-05-14T08:28:46;7.50;;;2.67;;
69358;SDS011;56520;49.066;8.660;2023-05-14T08:31:12;6.38;;;2.88;;
69358;SDS011;56520;49.066;8.660;2023-05-14T08:33:38;8.40;;;2.92;;
69358;SDS011;56520;49.066;8.660;2023-05-14T08:36:04;6.47;;;2.50;;
69358;SDS011;56520;49.066;8.660;2023-05-14T08:38:31;6.63;;;2.83;;
69358;SDS011;56520;49.066;8.660;2023-05-14T08:40:56;7.18;;;2.42;;
69358;SDS011;56520;49.066;8.660;2023-05-14T08:43:25;6.78;;;2.55;;
69358;SDS011;56520;49.066;8.660;2023-05-14T08:45:59;6.90;;;2.70;;
69358;SDS011;56520;49.066;8.660;2023-05-14T08:48:27;5.63;;;2.30;;
69358;SDS011;56520;49.066;8.660;2023-05-14T08:50:55;7.53;;;2.75;;
69358;SDS011;56520;49.066;8.660;2023-05-14T08:53:22;7.18;;;3.13;;
69358;SDS011;56520;49.066;8.660;2023-05-14T08:55:47;6.13;;;2.75;;
69358;SDS011;56520;49.066;8.660;2023-05-14T08:58:15;6.35;;;2.85;;
69358;SDS011;56520;49.066;8.660;2023-05-14T09:00:41;7.47;;;2.30;;
69358;SDS011;56520;49.066;8.660;2023-05-14T09:03:06;5.93;;;2.40;;
69358;SDS011;56520;49.066;8.660;2023-05-14T09:05:32;5.45;;;2.00;;
69358;SDS011;56520;49.066;8.660;2023-05-14T09:07:58;6.28;;;2.03;;
69358;SDS011;56520;49.066;8.660;2023-05-14T09:10:23;5.90;;;2.30;;
69358;SDS011;56520;49.066;8.660;2023-05-14T09:12:49;6.78;;;2.30;;
69358;SDS011;56520;49.066;8.660;2023-05-14T09:15:15;5.20;;;1.90;;
69358;SDS011;56520;49.066;8.660;2023-05-14T09:17:41;6.63;;;2.75;;
69358;SDS011;56520;49.066;8.660;2023-05-14T09:20:07;5.82;;;2.25;;
69358;SDS011;56520;49.066;8.660;2023-05-14T09:22:33;7.10;;;2.40;;
69358;SDS011;56520;49.066;8.660;2023-05-14T09:25:09;5.38;;;2.10;;
69358;SDS011;56520;49.066;8.660;2023-05-14T09:27:36;5.47;;;1.95;;
69358;SDS011;56520;49.066;8.660;2023-05-14T09:30:06;5.65;;;2.22;;
69358;SDS011;56520;49.066;8.660;2023-05-14T09:32:36;5.10;;;2.03;;
69358;SDS011;56520;49.066;8.660;2023-05-14T09:37:44;6.25;;;2.35;;
69358;SDS011;56520;49.066;8.660;2023-05-14T09:40:14;5.60;;;2.35;;
69358;SDS011;56520;49.066;8.660;2023-05-14T09:42:40;5.47;;;2.20;;
69358;SDS011;56520;49.066;8.660;2023-05-14T09:45:06;6.50;;;2.10;;
69358;SDS011;56520;49.066;8.660;2023-05-14T09:47:36;5.47;;;1.83;;
69358;SDS011;56520;49.066;8.660;2023-05-14T09:50:02;4.88;;;1.70;;
69358;SDS011;56520;49.066;8.660;2023-05-14T09:52:28;4.78;;;2.00;;
69358;SDS011;56520;49.066;8.660;2023-05-14T09:54:53;4.93;;;1.90;;
69358;SDS011;56520;49.066;8.660;2023-05-14T09:57:19;5.03;;;1.95;;
69358;SDS011;56520;49.066;8.660;2023-05-14T09:59:45;4.30;;;1.60;;
69358;SDS011;56520;49.066;8.660;2023-05-14T10:02:24;7.00;;;2.47;;
69358;SDS011;56520;49.066;8.660;2023-05-14T10:04:54;5.15;;;1.85;;
69358;SDS011;56520;49.066;8.660;2023-05-14T10:07:26;5.15;;;1.90;;
69358;SDS011;56520;49.066;8.660;2023-05-14T10:10:01;6.00;;;2.05;;
69358;SDS011;56520;49.066;8.660;2023-05-14T10:12:28;4.97;;;1.80;;
69358;SDS011;56520;49.066;8.660;2023-05-14T10:14:58;5.45;;;2.10;;
69358;SDS011;56520;49.066;8.660;2023-05-14T10:17:28;5.43;;;2.00;;
69358;SDS011;56520;49.066;8.660;2023-05-14T10:19:56;5.28;;;2.00;;
69358;SDS011;56520;49.066;8.660;2023-05-14T10:22:24;6.82;;;1.98;;
69358;SDS011;56520;49.066;8.660;2023-05-14T10:24:55;6.30;;;2.22;;
69358;SDS011;56520;49.066;8.660;2023-05-14T10:27:23;5.85;;;1.98;;
69358;SDS011;56520;49.066;8.660;2023-05-14T10:29:53;6.70;;;2.33;;
69358;SDS011;56520;49.066;8.660;2023-05-14T10:32:23;5.97;;;2.33;;
69358;SDS011;56520;49.066;8.660;2023-05-14T10:34:50;5.88;;;2.10;;
69358;SDS011;56520;49.066;8.660;2023-05-14T10:37:17;6.00;;;2.22;;
69358;SDS011;56520;49.066;8.660;2023-05-14T10:42:23;5.78;;;1.90;;
69358;SDS011;56520;49.066;8.660;2023-05-14T10:44:53;5.55;;;2.15;;
69358;SDS011;56520;49.066;8.660;2023-05-14T10:47:25;5.95;;;2.10;;
69358;SDS011;56520;49.066;8.660;2023-05-14T10:49:53;4.80;;;1.83;;
69358;SDS011;56520;49.066;8.660;2023-05-14T10:52:19;6.03;;;2.17;;
69358;SDS011;56520;49.066;8.660;2023-05-14T10:54:52;5.97;;;2.30;;
69358;SDS011;56520;49.066;8.660;2023-05-14T10:57:27;6.38;;;2.33;;
69358;SDS011;56520;49.066;8.660;2023-05-14T10:59:55;8.38;;;2.30;;
69358;SDS011;56520;49.066;8.660;2023-05-14T11:04:57;5.63;;;2.17;;
69358;SDS011;56520;49.066;8.660;2023-05-14T11:07:31;5.18;;;2.20;;
69358;SDS011;56520;49.066;8.660;2023-05-14T11:09:59;8.75;;;2.60;;
69358;SDS011;56520;49.066;8.660;2023-05-14T11:12:30;5.90;;;2.28;;
69358;SDS011;56520;49.066;8.660;2023-05-14T11:14:56;5.47;;;2.17;;
69358;SDS011;56520;49.066;8.660;2023-05-14T11:17:24;6.32;;;2.35;;
69358;SDS011;56520;49.066;8.660;2023-05-14T11:19:51;6.07;;;1.98;;
69358;SDS011;56520;49.066;8.660;2023-05-14T11:22:16;5.72;;;2.33;;
69358;SDS011;56520;49.066;8.660;2023-05-14T11:24:42;5.50;;;2.17;;
69358;SDS011;56520;49.066;8.660;2023-05-14T11:27:07;5.65;;;2.15;;
69358;SDS011;56520;49.066;8.660;2023-05-14T11:29:36;5.93;;;2.10;;
69358;SDS011;56520;49.066;8.660;2023-05-14T11:32:05;5.50;;;1.88;;
69358;SDS011;56520;49.066;8.660;2023-05-14T11:34:31;5.13;;;1.90;;
69358;SDS011;56520;49.066;8.660;2023-05-14T11:36:57;5.45;;;2.20;;
69358;SDS011;56520;49.066;8.660;2023-05-14T11:39:22;5.20;;;2.10;;
69358;SDS011;56520;49.066;8.660;2023-05-14T11:41:48;5.82;;;1.90;;
69358;SDS011;56520;49.066;8.660;2023-05-14T11:44:13;6.13;;;2.10;;
69358;SDS011;56520;49.066;8.660;2023-05-14T11:46:39;4.65;;;1.90;;
69358;SDS011;56520;49.066;8.660;2023-05-14T11:49:07;5.80;;;2.20;;
69358;SDS011;56520;49.066;8.660;2023-05-14T11:51:32;5.22;;;1.88;;
69358;SDS011;56520;49.066;8.660;2023-05-14T11:53:58;5.00;;;1.80;;
69358;SDS011;56520;49.066;8.660;2023-05-14T11:56:23;5.15;;;2.10;;
69358;SDS011;56520;49.066;8.660;2023-05-14T11:58:53;5.55;;;1.80;;
69358;SDS011;56520;49.066;8.660;2023-05-14T12:01:20;5.53;;;1.83;;
69358;SDS011;56520;49.066;8.660;2023-05-14T12:03:46;6.47;;;1.98;;
69358;SDS011;56520;49.066;8.660;2023-05-14T12:06:11;5.10;;;1.80;;
69358;SDS011;56520;49.066;8.660;2023-05-14T12:08:36;4.63;;;1.70;;
69358;SDS011;56520;49.066;8.660;2023-05-14T12:11:02;6.88;;;2.20;;
69358;SDS011;56520;49.066;8.660;2023-05-14T12:13:28;6.32;;;1.88;;
69358;SDS011;56520;49.066;8.660;2023-05-14T12:15:58;4.22;;;1.45;;
69358;SDS011;56520;49.066;8.660;2023-05-14T12:18:26;5.75;;;2.42;;
69358;SDS011;56520;49.066;8.660;2023-05-14T12:20:53;4.85;;;1.92;;
69358;SDS011;56520;49.066;8.660;2023-05-14T12:23:26;5.25;;;2.10;;
69358;SDS011;56520;49.066;8.660;2023-05-14T12:25:53;4.68;;;1.73;;
69358;SDS011;56520;49.066;8.660;2023-05-14T12:28:19;4.90;;;1.83;;
69358;SDS011;56520;49.066;8.660;2023-05-14T12:30:47;5.03;;;1.83;;
69358;SDS011;56520;49.066;8.660;2023-05-14T12:33:19;5.38;;;1.90;;
69358;SDS011;56520;49.066;8.660;2023-05-14T12:35:47;4.95;;;1.83;;
69358;SDS011;56520;49.066;8.660;2023-05-14T12:38:12;6.00;;;2.00;;
69358;SDS011;56520;49.066;8.660;2023-05-14T12:40:37;5.43;;;2.22;;
69358;SDS011;56520;49.066;8.660;2023-05-14T12:43:03;5.53;;;2.08;;
69358;SDS011;56520;49.066;8.660;2023-05-14T12:45:28;5.80;;;2.13;;
69358;SDS011;56520;49.066;8.660;2023-05-14T12:47:54;5.50;;;1.90;;
69358;SDS011;56520;49.066;8.660;2023-05-14T12:50:20;5.28;;;2.15;;
69358;SDS011;56520;49.066;8.660;2023-05-14T12:52:45;6.53;;;2.03;;
69358;SDS011;56520;49.066;8.660;2023-05-14T12:55:11;5.60;;;2.25;;
69358;SDS011;56520;49.066;8.660;2023-05-14T12:57:36;4.68;;;1.70;;
69358;SDS011;56520;49.066;8.660;2023-05-14T13:00:03;5.28;;;1.98;;
69358;SDS011;56520;49.066;8.660;2023-05-14T13:02:32;5.00;;;1.80;;
69358;SDS011;56520;49.066;8.660;2023-05-14T13:04:58;5.45;;;1.95;;
69358;SDS011;56520;49.066;8.660;2023-05-14T13:07:26;5.28;;;1.88;;
69358;SDS011;56520;49.066;8.660;2023-05-14T13:09:54;6.00;;;2.05;;
69358;SDS011;56520;49.066;8.660;2023-05-14T13:12:19;6.43;;;2.13;;
69358;SDS011;56520;49.066;8.660;2023-05-14T13:14:45;5.03;;;1.80;;
69358;SDS011;56520;49.066;8.660;2023-05-14T13:17:10;4.65;;;1.73;;
69358;SDS011;56520;49.066;8.660;2023-05-14T13:19:35;4.70;;;1.67;;
69358;SDS011;56520;49.066;8.660;2023-05-14T13:22:01;4.72;;;1.77;;
69358;SDS011;56520;49.066;8.660;2023-05-14T13:24:26;4.85;;;1.77;;
69358;SDS011;56520;49.066;8.660;2023-05-14T13:26:52;5.18;;;2.03;;
69358;SDS011;56520;49.066;8.660;2023-05-14T13:29:17;5.03;;;2.05;;
69358;SDS011;56520;49.066;8.660;2023-05-14T13:31:42;4.80;;;1.80;;
69358;SDS011;56520;49.066;8.660;2023-05-14T13:34:08;5.05;;;1.83;;
69358;SDS011;56520;49.066;8.660;2023-05-14T13:36:34;5.57;;;2.20;;
69358;SDS011;56520;49.066;8.660;2023-05-14T13:39:03;4.97;;;1.90;;
69358;SDS011;56520;49.066;8.660;2023-05-14T13:41:32;5.10;;;1.92;;
69358;SDS011;56520;49.066;8.660;2023-05-14T13:43:59;4.82;;;1.80;;
69358;SDS011;56520;49.066;8.660;2023-05-14T13:46:25;4.75;;;1.90;;
69358;SDS011;56520;49.066;8.660;2023-05-14T13:48:50;5.57;;;1.90;;
69358;SDS011;56520;49.066;8.660;2023-05-14T13:51:15;5.82;;;2.28;;
69358;SDS011;56520;49.066;8.660;2023-05-14T13:53:41;6.88;;;2.13;;
69358;SDS011;56520;49.066;8.660;2023-05-14T13:56:06;5.22;;;2.08;;
69358;SDS011;56520;49.066;8.660;2023-05-14T13:58:32;4.68;;;1.70;;
69358;SDS011;56520;49.066;8.660;2023-05-14T14:00:58;4.93;;;1.60;;
69358;SDS011;56520;49.066;8.660;2023-05-14T14:03:23;5.00;;;1.83;;
69358;SDS011;56520;49.066;8.660;2023-05-14T14:05:49;4.63;;;1.70;;
69358;SDS011;56520;49.066;8.660;2023-05-14T14:08:15;5.32;;;1.83;;
69358;SDS011;56520;49.066;8.660;2023-05-14T14:10:41;4.65;;;1.73;;
69358;SDS011;56520;49.066;8.660;2023-05-14T14:13:07;4.38;;;1.48;;
69358;SDS011;56520;49.066;8.660;2023-05-14T14:15:33;4.60;;;1.60;;
69358;SDS011;56520;49.066;8.660;2023-05-14T14:17:59;5.57;;;1.80;;
69358;SDS011;56520;49.066;8.660;2023-05-14T14:20:24;4.72;;;1.60;;
69358;SDS011;56520;49.066;8.660;2023-05-14T14:22:50;6.05;;;1.67;;
69358;SDS011;56520;49.066;8.660;2023-05-14T14:25:15;4.90;;;2.00;;
69358;SDS011;56520;49.066;8.660;2023-05-14T14:27:41;4.25;;;1.55;;
69358;SDS011;56520;49.066;8.660;2023-05-14T14:30:07;4.25;;;1.55;;
69358;SDS011;56520;49.066;8.660;2023-05-14T14:32:39;6.10;;;2.17;;
69358;SDS011;56520;49.066;8.660;2023-05-14T14:35:15;5.35;;;1.80;;
69358;SDS011;56520;49.066;8.660;2023-05-14T14:37:42;4.32;;;1.60;;
69358;SDS011;56520;49.066;8.660;2023-05-14T14:40:12;5.20;;;1.63;;
69358;SDS011;56520;49.066;8.660;2023-05-14T14:42:38;6.50;;;1.88;;
69358;SDS011;56520;49.066;8.660;2023-05-14T14:45:04;5.10;;;2.10;;
69358;SDS011;56520;49.066;8.660;2023-05-14T14:47:29;4.72;;;1.90;;
69358;SDS011;56520;49.066;8.660;2023-05-14T14:49:55;5.18;;;1.70;;
69358;SDS011;56520;49.066;8.660;2023-05-14T14:52:24;4.90;;;1.67;;
69358;SDS011;56520;49.066;8.660;2023-05-14T14:54:50;4.80;;;1.75;;
69358;SDS011;56520;49.066;8.660;2023-05-14T14:57:16;4.80;;;1.70;;